sensor_id;sensor_type;location;lat;lon;timestamp;pressure;altitude;pressure_sealevel;temperature;humidity
5913;BME280;2982;42.684;23.356;2023-04-10T00:01:49;95050.53;;;7.50;100.00
5913;BME280;2982;42.684;23.356;2023-04-10T00:04:14;95047.00;;;7.54;100.00
5913;BME280;2982;42.684;23.356;2023-04-10T00:06:39;95049.06;;;7.44;100.00
5913;BME280;2982;42.684;23.356;2023-04-10T00:09:05;95039.13;;;7.40;100.00
5913;BME280;2982;42.684;23.356;2023-04-10T00:11:30;95040.72;;;7.42;100.00
5913;BME280;2982;42.684;23.356;2023-04-10T00:13:55;95041.72;;;7.38;100.00
5913;BME280;2982;42.684;23.356;2023-04-10T00:16:20;95041.78;;;7.37;100.00
5913;BME280;2982;42.684;23.356;2023-04-10T00:18:46;95036.59;;;7.40;100.00
5913;BME280;2982;42.684;23.356;2023-04-10T00:21:11;95019.03;;;7.37;100.00
5913;BME280;2982;42.684;23.356;2023-04-10T00:23:36;95029.03;;;7.40;100.00
5913;BME280;2982;42.684;23.356;2023-04-10T00:26:02;95024.63;;;7.45;100.00
5913;BME280;2982;42.684;23.356;2023-04-10T00:28:27;95027.97;;;7.45;100.00
5913;BME280;2982;42.684;23.356;2023-04-10T00:30:53;95020.44;;;7.44;100.00
5913;BME280;2982;42.684;23.356;2023-04-10T00:33:18;95016.25;;;7.43;100.00
5913;BME280;2982;42.684;23.356;2023-04-10T00:35:43;95017.22;;;7.40;100.00
5913;BME280;2982;42.684;23.356;2023-04-10T00:38:09;95021.97;;;7.48;100.00
5913;BME280;2982;42.684;23.356;2023-04-10T00:40:34;95015.34;;;7.45;100.00
5913;BME280;2982;42.684;23.356;2023-04-10T00:42:59;95015.38;;;7.44;100.00
5913;BME280;2982;42.684;23.356;2023-04-10T00:45:25;95010.50;;;7.39;100.00
5913;BME280;2982;42.684;23.356;2023-04-10T00:47:51;95011.50;;;7.35;100.00
5913;BME280;2982;42.684;23.356;2023-04-10T00:50:16;95018.09;;;7.39;100.00
5913;BME280;2982;42.684;23.356;2023-04-10T00:52:42;95013.00;;;7.41;100.00
5913;BME280;2982;42.684;23.356;2023-04-10T00:55:08;95014.50;;;7.45;100.00
5913;BME280;2982;42.684;23.356;2023-04-10T00:57:33;95012.03;;;7.43;100.00
5913;BME280;2982;42.684;23.356;2023-04-10T00:59:59;95013.63;;;7.46;100.00
5913;BME280;2982;42.684;23.356;2023-04-10T01:02:25;95015.03;;;7.53;100.00
5913;BME280;2982;42.684;23.356;2023-04-10T01:04:50;94992.13;;;7.36;100.00
5913;BME280;2982;42.684;23.356;2023-04-10T01:07:37;95002.56;;;7.48;100.00
5913;BME280;2982;42.684;23.356;2023-04-10T01:10:17;94995.03;;;7.47;100.00
5913;BME280;2982;42.684;23.356;2023-04-10T01:15:29;94992.69;;;7.42;100.00
5913;BME280;2982;42.684;23.356;2023-04-10T01:18:02;94996.41;;;7.34;100.00
5913;BME280;2982;42.684;23.356;2023-04-10T01:20:33;94998.19;;;7.32;100.00
5913;BME280;2982;42.684;23.356;2023-04-10T01:23:20;95007.47;;;7.31;100.00
5913;BME280;2982;42.684;23.356;2023-04-10T01:26:06;95001.94;;;7.22;100.00
5913;BME280;2982;42.684;23.356;2023-04-10T01:31:45;94997.72;;;7.22;100.00
5913;BME280;2982;42.684;23.356;2023-04-10T01:34:19;94992.84;;;7.18;100.00
5913;BME280;2982;42.684;23.356;2023-04-10T01:36:52;94998.28;;;7.29;100.00
5913;BME280;2982;42.684;23.356;2023-04-10T01:39:20;94993.84;;;7.35;100.00
5913;BME280;2982;42.684;23.356;2023-04-10T01:41:47;94994.75;;;7.33;100.00
5913;BME280;2982;42.684;23.356;2023-04-10T01:44:14;94994.25;;;7.25;100.00
5913;BME280;2982;42.684;23.356;2023-04-10T01:46:42;94994.06;;;7.29;100.00
5913;BME280;2982;42.684;23.356;2023-04-10T01:49:08;94998.84;;;7.37;100.00
5913;BME280;2982;42.684;23.356;2023-04-10T01:51:34;95002.09;;;7.39;100.00
5913;BME280;2982;42.684;23.356;2023-04-10T01:54:00;95002.88;;;7.41;100.00
5913;BME280;2982;42.684;23.356;2023-04-10T01:56:27;95000.41;;;7.39;100.00
5913;BME280;2982;42.684;23.356;2023-04-10T01:58:53;94985.19;;;7.19;100.00
5913;BME280;2982;42.684;23.356;2023-04-10T02:01:19;95002.28;;;7.34;100.00
5913;BME280;2982;42.684;23.356;2023-04-10T02:03:44;94998.69;;;7.40;100.00
5913;BME280;2982;42.684;23.356;2023-04-10T02:06:32;95000.63;;;7.33;100.00
5913;BME280;2982;42.684;23.356;2023-04-10T02:09:11;94982.84;;;7.36;100.00
5913;BME280;2982;42.684;23.356;2023-04-10T02:11:58;94993.66;;;7.40;100.00
5913;BME280;2982;42.684;23.356;2023-04-10T02:14:26;94985.06;;;7.44;100.00
5913;BME280;2982;42.684;23.356;2023-04-10T02:16:54;94973.94;;;7.48;100.00
5913;BME280;2982;42.684;23.356;2023-04-10T02:19:21;94971.13;;;7.56;100.00
5913;BME280;2982;42.684;23.356;2023-04-10T02:21:49;94973.47;;;7.60;100.00
5913;BME280;2982;42.684;23.356;2023-04-10T02:24:15;94964.47;;;7.53;100.00
5913;BME280;2982;42.684;23.356;2023-04-10T02:26:48;94966.69;;;7.40;100.00
5913;BME280;2982;42.684;23.356;2023-04-10T02:29:14;94963.91;;;7.46;100.00
5913;BME280;2982;42.684;23.356;2023-04-10T02:31:40;94966.44;;;7.46;100.00
5913;BME280;2982;42.684;23.356;2023-04-10T02:34:06;94956.66;;;7.37;100.00
5913;BME280;2982;42.684;23.356;2023-04-10T02:36:31;94951.75;;;7.34;100.00
5913;BME280;2982;42.684;23.356;2023-04-10T02:38:57;94954.41;;;7.31;100.00
5913;BME280;2982;42.684;23.356;2023-04-10T02:41:22;94957.81;;;7.30;100.00
5913;BME280;2982;42.684;23.356;2023-04-10T02:43:47;94950.78;;;7.17;100.00
5913;BME280;2982;42.684;23.356;2023-04-10T02:46:13;94949.44;;;7.08;100.00
5913;BME280;2982;42.684;23.356;2023-04-10T02:48:38;94946.75;;;7.13;100.00
5913;BME280;2982;42.684;23.356;2023-04-10T02:51:03;94950.13;;;7.12;100.00
5913;BME280;2982;42.684;23.356;2023-04-10T02:53:29;94946.09;;;7.07;100.00
5913;BME280;2982;42.684;23.356;2023-04-10T02:55:54;94942.44;;;6.93;100.00
5913;BME280;2982;42.684;23.356;2023-04-10T02:58:19;94938.53;;;6.86;100.00
5913;BME280;2982;42.684;23.356;2023-04-10T03:00:48;94935.53;;;6.76;100.00
5913;BME280;2982;42.684;23.356;2023-04-10T03:03:13;94943.56;;;6.86;100.00
5913;BME280;2982;42.684;23.356;2023-04-10T03:05:39;94907.03;;;6.51;100.00
5913;BME280;2982;42.684;23.356;2023-04-10T03:08:04;94940.28;;;6.62;100.00
5913;BME280;2982;42.684;23.356;2023-04-10T03:10:29;94941.16;;;6.61;100.00
5913;BME280;2982;42.684;23.356;2023-04-10T03:12:54;94942.31;;;6.52;100.00
5913;BME280;2982;42.684;23.356;2023-04-10T03:15:20;94944.19;;;6.47;100.00
5913;BME280;2982;42.684;23.356;2023-04-10T03:17:45;94945.34;;;6.39;100.00
5913;BME280;2982;42.684;23.356;2023-04-10T03:20:10;94917.59;;;6.15;100.00
5913;BME280;2982;42.684;23.356;2023-04-10T03:22:36;94942.56;;;6.22;100.00
5913;BME280;2982;42.684;23.356;2023-04-10T03:25:01;94946.72;;;6.24;100.00
5913;BME280;2982;42.684;23.356;2023-04-10T03:27:26;94937.81;;;6.14;100.00
5913;BME280;2982;42.684;23.356;2023-04-10T03:29:52;94941.38;;;6.08;100.00
5913;BME280;2982;42.684;23.356;2023-04-10T03:32:17;94939.78;;;6.06;100.00
5913;BME280;2982;42.684;23.356;2023-04-10T03:34:42;94935.75;;;6.02;100.00
5913;BME280;2982;42.684;23.356;2023-04-10T03:37:07;94942.47;;;6.01;100.00
5913;BME280;2982;42.684;23.356;2023-04-10T03:39:33;94944.19;;;6.01;100.00
5913;BME280;2982;42.684;23.356;2023-04-10T03:41:58;94950.09;;;6.00;100.00
5913;BME280;2982;42.684;23.356;2023-04-10T03:44:23;94946.41;;;6.08;100.00
5913;BME280;2982;42.684;23.356;2023-04-10T03:46:48;94953.97;;;6.08;100.00
5913;BME280;2982;42.684;23.356;2023-04-10T03:49:14;94954.25;;;6.01;100.00
5913;BME280;2982;42.684;23.356;2023-04-10T03:51:39;94951.06;;;5.96;100.00
5913;BME280;2982;42.684;23.356;2023-04-10T03:54:04;94959.63;;;5.92;100.00
5913;BME280;2982;42.684;23.356;2023-04-10T03:56:29;94953.94;;;5.85;100.00
5913;BME280;2982;42.684;23.356;2023-04-10T03:58:55;94960.72;;;5.83;100.00
5913;BME280;2982;42.684;23.356;2023-04-10T04:01:20;94968.28;;;5.83;100.00
5913;BME280;2982;42.684;23.356;2023-04-10T04:03:46;94965.16;;;5.76;100.00
5913;BME280;2982;42.684;23.356;2023-04-10T04:06:11;94965.91;;;5.78;100.00
5913;BME280;2982;42.684;23.356;2023-04-10T04:08:37;94965.78;;;5.83;100.00
5913;BME280;2982;42.684;23.356;2023-04-10T04:11:02;94968.97;;;5.88;100.00
5913;BME280;2982;42.684;23.356;2023-04-10T04:13:27;94971.16;;;5.97;100.00
5913;BME280;2982;42.684;23.356;2023-04-10T04:15:53;94969.31;;;6.02;100.00
5913;BME280;2982;42.684;23.356;2023-04-10T04:18:18;94964.84;;;6.10;100.00
5913;BME280;2982;42.684;23.356;2023-04-10T04:20:43;94966.22;;;6.19;100.00
5913;BME280;2982;42.684;23.356;2023-04-10T04:23:08;94974.28;;;6.29;100.00
5913;BME280;2982;42.684;23.356;2023-04-10T04:25:34;94972.31;;;6.37;100.00
5913;BME280;2982;42.684;23.356;2023-04-10T04:27:59;94970.56;;;6.39;100.00
5913;BME280;2982;42.684;23.356;2023-04-10T04:30:24;94965.25;;;6.46;100.00
5913;BME280;2982;42.684;23.356;2023-04-10T04:32:49;94971.56;;;6.80;100.00
5913;BME280;2982;42.684;23.356;2023-04-10T04:35:16;94985.91;;;7.23;100.00
5913;BME280;2982;42.684;23.356;2023-04-10T04:37:41;94972.56;;;7.61;100.00
5913;BME280;2982;42.684;23.356;2023-04-10T04:40:06;94973.66;;;7.96;100.00
5913;BME280;2982;42.684;23.356;2023-04-10T04:42:32;94980.38;;;8.36;100.00
5913;BME280;2982;42.684;23.356;2023-04-10T04:44:57;94997.25;;;8.74;100.00
5913;BME280;2982;42.684;23.356;2023-04-10T04:47:22;94985.41;;;8.94;100.00
5913;BME280;2982;42.684;23.356;2023-04-10T04:49:48;94972.94;;;9.08;100.00
5913;BME280;2982;42.684;23.356;2023-04-10T04:52:13;94986.50;;;9.24;100.00
5913;BME280;2982;42.684;23.356;2023-04-10T04:54:38;94989.84;;;9.43;100.00
5913;BME280;2982;42.684;23.356;2023-04-10T04:57:03;94984.84;;;9.42;100.00
5913;BME280;2982;42.684;23.356;2023-04-10T04:59:29;95001.63;;;9.44;100.00
5913;BME280;2982;42.684;23.356;2023-04-10T05:01:54;94987.78;;;9.68;100.00
5913;BME280;2982;42.684;23.356;2023-04-10T05:04:19;94978.19;;;10.08;100.00
5913;BME280;2982;42.684;23.356;2023-04-10T05:06:45;94996.25;;;10.36;100.00
5913;BME280;2982;42.684;23.356;2023-04-10T05:09:10;94988.63;;;10.53;100.00
5913;BME280;2982;42.684;23.356;2023-04-10T05:11:35;94990.81;;;10.59;100.00
5913;BME280;2982;42.684;23.356;2023-04-10T05:14:00;94991.53;;;10.46;100.00
5913;BME280;2982;42.684;23.356;2023-04-10T05:16:26;94994.22;;;10.76;100.00
5913;BME280;2982;42.684;23.356;2023-04-10T05:18:51;94997.91;;;11.01;100.00
5913;BME280;2982;42.684;23.356;2023-04-10T05:21:16;94991.75;;;11.21;100.00
5913;BME280;2982;42.684;23.356;2023-04-10T05:23:41;94996.13;;;11.65;100.00
5913;BME280;2982;42.684;23.356;2023-04-10T05:26:07;94994.09;;;11.56;100.00
5913;BME280;2982;42.684;23.356;2023-04-10T05:28:32;94993.44;;;11.98;100.00
5913;BME280;2982;42.684;23.356;2023-04-10T05:30:57;94983.38;;;12.24;100.00
5913;BME280;2982;42.684;23.356;2023-04-10T05:33:22;94989.50;;;12.50;100.00
5913;BME280;2982;42.684;23.356;2023-04-10T05:35:48;94994.28;;;12.97;100.00
5913;BME280;2982;42.684;23.356;2023-04-10T05:38:13;94989.84;;;13.01;98.32
5913;BME280;2982;42.684;23.356;2023-04-10T05:40:38;94991.94;;;13.35;93.19
5913;BME280;2982;42.684;23.356;2023-04-10T05:43:03;94997.88;;;13.62;86.66
5913;BME280;2982;42.684;23.356;2023-04-10T05:45:29;94992.28;;;13.70;85.06
5913;BME280;2982;42.684;23.356;2023-04-10T05:47:54;94998.75;;;13.88;81.94
5913;BME280;2982;42.684;23.356;2023-04-10T05:50:19;94999.44;;;14.17;79.24
5913;BME280;2982;42.684;23.356;2023-04-10T05:52:44;94997.47;;;14.08;74.15
5913;BME280;2982;42.684;23.356;2023-04-10T05:55:10;95002.06;;;14.03;74.95
5913;BME280;2982;42.684;23.356;2023-04-10T05:57:35;95001.78;;;14.20;75.42
5913;BME280;2982;42.684;23.356;2023-04-10T06:00:00;94985.75;;;14.18;73.91
5913;BME280;2982;42.684;23.356;2023-04-10T06:02:26;95000.13;;;14.19;74.35
5913;BME280;2982;42.684;23.356;2023-04-10T06:04:51;95002.84;;;14.68;73.05
5913;BME280;2982;42.684;23.356;2023-04-10T06:07:16;95003.94;;;14.26;73.96
5913;BME280;2982;42.684;23.356;2023-04-10T06:09:41;95004.16;;;13.84;76.84
5913;BME280;2982;42.684;23.356;2023-04-10T06:12:07;95005.56;;;13.21;81.55
5913;BME280;2982;42.684;23.356;2023-04-10T06:14:33;95005.44;;;12.82;87.58
5913;BME280;2982;42.684;23.356;2023-04-10T06:16:59;94998.34;;;12.45;93.30
5913;BME280;2982;42.684;23.356;2023-04-10T06:19:24;94988.13;;;12.30;98.05
5913;BME280;2982;42.684;23.356;2023-04-10T06:21:49;94990.47;;;12.19;98.84
5913;BME280;2982;42.684;23.356;2023-04-10T06:24:14;95001.66;;;12.03;100.00
5913;BME280;2982;42.684;23.356;2023-04-10T06:26:40;94996.31;;;11.91;100.00
5913;BME280;2982;42.684;23.356;2023-04-10T06:29:05;94994.03;;;11.71;100.00
5913;BME280;2982;42.684;23.356;2023-04-10T06:31:33;94903.78;;;10.87;100.00
5913;BME280;2982;42.684;23.356;2023-04-10T06:33:59;94990.34;;;11.31;100.00
5913;BME280;2982;42.684;23.356;2023-04-10T06:36:24;94969.69;;;11.06;100.00
5913;BME280;2982;42.684;23.356;2023-04-10T06:38:49;94991.69;;;11.23;100.00
5913;BME280;2982;42.684;23.356;2023-04-10T06:41:14;94996.63;;;11.10;100.00
5913;BME280;2982;42.684;23.356;2023-04-10T06:43:40;94981.09;;;10.99;100.00
5913;BME280;2982;42.684;23.356;2023-04-10T06:46:05;95002.81;;;11.20;100.00
5913;BME280;2982;42.684;23.356;2023-04-10T06:48:31;94982.50;;;11.04;100.00
5913;BME280;2982;42.684;23.356;2023-04-10T06:50:57;95005.88;;;10.95;100.00
5913;BME280;2982;42.684;23.356;2023-04-10T06:53:22;95006.47;;;11.00;100.00
5913;BME280;2982;42.684;23.356;2023-04-10T06:55:47;95009.38;;;10.93;100.00
5913;BME280;2982;42.684;23.356;2023-04-10T06:58:12;95014.59;;;10.74;100.00
5913;BME280;2982;42.684;23.356;2023-04-10T07:00:38;95008.69;;;10.74;100.00
5913;BME280;2982;42.684;23.356;2023-04-10T07:03:03;95005.78;;;10.81;100.00
5913;BME280;2982;42.684;23.356;2023-04-10T07:05:28;95005.78;;;10.97;100.00
5913;BME280;2982;42.684;23.356;2023-04-10T07:07:53;95008.31;;;10.97;100.00
5913;BME280;2982;42.684;23.356;2023-04-10T07:10:19;95002.19;;;11.01;100.00
5913;BME280;2982;42.684;23.356;2023-04-10T07:12:44;95011.28;;;11.05;100.00
5913;BME280;2982;42.684;23.356;2023-04-10T07:15:09;95020.00;;;11.01;100.00
5913;BME280;2982;42.684;23.356;2023-04-10T07:17:34;95013.97;;;11.02;100.00
5913;BME280;2982;42.684;23.356;2023-04-10T07:20:00;95008.91;;;11.02;100.00
5913;BME280;2982;42.684;23.356;2023-04-10T07:22:25;95012.09;;;10.90;100.00
5913;BME280;2982;42.684;23.356;2023-04-10T07:24:50;95010.88;;;10.81;100.00
5913;BME280;2982;42.684;23.356;2023-04-10T07:27:16;95013.50;;;10.95;100.00
5913;BME280;2982;42.684;23.356;2023-04-10T07:29:41;94986.59;;;10.76;100.00
5913;BME280;2982;42.684;23.356;2023-04-10T07:32:06;95012.03;;;10.91;100.00
5913;BME280;2982;42.684;23.356;2023-04-10T07:34:32;95011.28;;;10.89;100.00
5913;BME280;2982;42.684;23.356;2023-04-10T07:36:57;95018.59;;;11.27;100.00
5913;BME280;2982;42.684;23.356;2023-04-10T07:39:22;95016.44;;;11.51;100.00
5913;BME280;2982;42.684;23.356;2023-04-10T07:41:47;95011.81;;;11.73;100.00
5913;BME280;2982;42.684;23.356;2023-04-10T07:44:13;95014.16;;;11.91;100.00
5913;BME280;2982;42.684;23.356;2023-04-10T07:46:38;95014.72;;;11.97;100.00
5913;BME280;2982;42.684;23.356;2023-04-10T07:49:03;95025.22;;;12.20;99.95
5913;BME280;2982;42.684;23.356;2023-04-10T07:51:28;95018.44;;;12.35;97.59
5913;BME280;2982;42.684;23.356;2023-04-10T07:53:54;95006.41;;;12.51;95.62
5913;BME280;2982;42.684;23.356;2023-04-10T07:56:19;95017.44;;;12.66;95.56
5913;BME280;2982;42.684;23.356;2023-04-10T07:58:45;95012.72;;;12.46;95.37
5913;BME280;2982;42.684;23.356;2023-04-10T08:01:11;95008.78;;;12.26;95.79
5913;BME280;2982;42.684;23.356;2023-04-10T08:03:38;95018.56;;;12.18;97.93
5913;BME280;2982;42.684;23.356;2023-04-10T08:06:03;95005.03;;;12.17;99.61
5913;BME280;2982;42.684;23.356;2023-04-10T08:08:29;95014.41;;;12.17;98.76
5913;BME280;2982;42.684;23.356;2023-04-10T08:10:54;95008.47;;;12.02;99.85
5913;BME280;2982;42.684;23.356;2023-04-10T08:13:19;95016.25;;;11.99;100.00
5913;BME280;2982;42.684;23.356;2023-04-10T08:15:44;95008.63;;;12.13;100.00
5913;BME280;2982;42.684;23.356;2023-04-10T08:18:10;95010.19;;;12.02;100.00
5913;BME280;2982;42.684;23.356;2023-04-10T08:20:35;95016.78;;;11.90;100.00
5913;BME280;2982;42.684;23.356;2023-04-10T08:23:00;95009.72;;;12.09;100.00
5913;BME280;2982;42.684;23.356;2023-04-10T08:25:25;95013.25;;;12.22;100.00
5913;BME280;2982;42.684;23.356;2023-04-10T08:27:51;95005.22;;;12.43;99.93
5913;BME280;2982;42.684;23.356;2023-04-10T08:30:16;95011.97;;;12.44;99.61
5913;BME280;2982;42.684;23.356;2023-04-10T08:32:41;95004.13;;;12.47;99.53
5913;BME280;2982;42.684;23.356;2023-04-10T08:35:07;95009.88;;;12.36;99.45
5913;BME280;2982;42.684;23.356;2023-04-10T08:37:32;95011.84;;;12.17;98.84
5913;BME280;2982;42.684;23.356;2023-04-10T08:39:57;95015.28;;;12.02;100.00
5913;BME280;2982;42.684;23.356;2023-04-10T08:42:23;95008.16;;;11.93;100.00
5913;BME280;2982;42.684;23.356;2023-04-10T08:44:49;95008.75;;;12.12;100.00
5913;BME280;2982;42.684;23.356;2023-04-10T08:47:15;95002.13;;;12.38;100.00
5913;BME280;2982;42.684;23.356;2023-04-10T08:49:53;94991.22;;;12.35;100.00
5913;BME280;2982;42.684;23.356;2023-04-10T08:52:24;95005.06;;;12.60;98.16
5913;BME280;2982;42.684;23.356;2023-04-10T08:54:53;94996.50;;;12.61;99.70
5913;BME280;2982;42.684;23.356;2023-04-10T08:57:19;94996.88;;;12.69;96.38
5913;BME280;2982;42.684;23.356;2023-04-10T08:59:49;94998.41;;;12.71;94.74
5913;BME280;2982;42.684;23.356;2023-04-10T09:02:14;94991.69;;;12.56;97.65
5913;BME280;2982;42.684;23.356;2023-04-10T09:04:47;94991.50;;;12.73;95.70
5913;BME280;2982;42.684;23.356;2023-04-10T09:07:12;94990.22;;;12.80;96.36
5913;BME280;2982;42.684;23.356;2023-04-10T09:09:38;94987.13;;;12.75;89.46
5913;BME280;2982;42.684;23.356;2023-04-10T09:12:04;94987.47;;;12.84;84.52
5913;BME280;2982;42.684;23.356;2023-04-10T09:14:30;94981.41;;;12.72;85.37
5913;BME280;2982;42.684;23.356;2023-04-10T09:17:15;94981.38;;;12.86;83.45
5913;BME280;2982;42.684;23.356;2023-04-10T09:19:41;94994.56;;;12.93;83.86
5913;BME280;2982;42.684;23.356;2023-04-10T09:22:07;94977.56;;;12.65;80.36
5913;BME280;2982;42.684;23.356;2023-04-10T09:24:45;94986.03;;;12.65;81.35
5913;BME280;2982;42.684;23.356;2023-04-10T09:27:29;94973.75;;;12.44;83.32
5913;BME280;2982;42.684;23.356;2023-04-10T09:29:55;94986.19;;;12.20;84.01
5913;BME280;2982;42.684;23.356;2023-04-10T09:32:36;94977.91;;;12.02;87.04
5913;BME280;2982;42.684;23.356;2023-04-10T09:35:02;94979.03;;;12.12;88.03
5913;BME280;2982;42.684;23.356;2023-04-10T09:37:34;94975.53;;;12.13;88.38
5913;BME280;2982;42.684;23.356;2023-04-10T09:40:00;94981.53;;;11.98;88.31
5913;BME280;2982;42.684;23.356;2023-04-10T09:42:44;94975.34;;;11.88;89.52
5913;BME280;2982;42.684;23.356;2023-04-10T09:45:09;94976.50;;;11.82;87.31
5913;BME280;2982;42.684;23.356;2023-04-10T09:47:34;94976.56;;;11.81;87.41
5913;BME280;2982;42.684;23.356;2023-04-10T09:50:00;94980.38;;;11.74;87.83
5913;BME280;2982;42.684;23.356;2023-04-10T09:52:30;94958.19;;;11.76;85.68
5913;BME280;2982;42.684;23.356;2023-04-10T09:55:00;94982.34;;;11.84;84.69
5913;BME280;2982;42.684;23.356;2023-04-10T09:57:29;94986.69;;;11.67;84.83
5913;BME280;2982;42.684;23.356;2023-04-10T09:59:56;94965.69;;;11.79;85.12
5913;BME280;2982;42.684;23.356;2023-04-10T10:02:24;94963.09;;;12.09;85.55
5913;BME280;2982;42.684;23.356;2023-04-10T10:04:51;94965.28;;;12.29;83.25
5913;BME280;2982;42.684;23.356;2023-04-10T10:07:21;94956.91;;;12.55;81.94
5913;BME280;2982;42.684;23.356;2023-04-10T10:09:48;94958.16;;;12.91;78.64
5913;BME280;2982;42.684;23.356;2023-04-10T10:12:15;94959.94;;;13.03;76.47
5913;BME280;2982;42.684;23.356;2023-04-10T10:14:49;94953.31;;;13.00;75.41
5913;BME280;2982;42.684;23.356;2023-04-10T10:17:20;94949.47;;;13.07;75.22
5913;BME280;2982;42.684;23.356;2023-04-10T10:20:07;94923.97;;;13.07;76.00
5913;BME280;2982;42.684;23.356;2023-04-10T10:22:34;94944.88;;;13.27;74.13
5913;BME280;2982;42.684;23.356;2023-04-10T10:24:59;94939.47;;;13.04;75.04
5913;BME280;2982;42.684;23.356;2023-04-10T10:27:27;94932.09;;;13.00;76.97
5913;BME280;2982;42.684;23.356;2023-04-10T10:29:55;94936.09;;;13.18;75.02
5913;BME280;2982;42.684;23.356;2023-04-10T10:32:24;94934.25;;;13.20;74.06
5913;BME280;2982;42.684;23.356;2023-04-10T10:34:51;94936.84;;;13.33;74.81
5913;BME280;2982;42.684;23.356;2023-04-10T10:37:18;94917.94;;;13.22;72.56
5913;BME280;2982;42.684;23.356;2023-04-10T10:39:58;94936.25;;;13.42;73.06
5913;BME280;2982;42.684;23.356;2023-04-10T10:42:35;94933.44;;;13.19;72.05
5913;BME280;2982;42.684;23.356;2023-04-10T10:45:19;94923.06;;;13.35;73.60
5913;BME280;2982;42.684;23.356;2023-04-10T10:47:49;94917.88;;;13.37;75.29
5913;BME280;2982;42.684;23.356;2023-04-10T10:50:15;94911.56;;;13.42;71.40
5913;BME280;2982;42.684;23.356;2023-04-10T10:52:47;94919.22;;;13.42;71.67
5913;BME280;2982;42.684;23.356;2023-04-10T10:57:51;94905.13;;;13.37;73.16
5913;BME280;2982;42.684;23.356;2023-04-10T11:00:17;94901.13;;;13.33;71.39
5913;BME280;2982;42.684;23.356;2023-04-10T11:02:43;94905.41;;;13.84;70.52
5913;BME280;2982;42.684;23.356;2023-04-10T11:05:08;94898.16;;;14.16;67.67
5913;BME280;2982;42.684;23.356;2023-04-10T11:11:02;94890.06;;;14.35;62.36
5913;BME280;2982;42.684;23.356;2023-04-10T11:13:28;94893.88;;;14.42;62.46
5913;BME280;2982;42.684;23.356;2023-04-10T11:15:58;94890.19;;;14.46;61.04
5913;BME280;2982;42.684;23.356;2023-04-10T11:21:15;94880.69;;;13.72;63.80
5913;BME280;2982;42.684;23.356;2023-04-10T11:28:58;94880.81;;;12.77;78.37
5913;BME280;2982;42.684;23.356;2023-04-10T11:31:24;94883.69;;;12.86;78.96
5913;BME280;2982;42.684;23.356;2023-04-10T11:36:21;94886.56;;;12.67;76.39
5913;BME280;2982;42.684;23.356;2023-04-10T11:38:53;94874.41;;;12.85;74.41
5913;BME280;2982;42.684;23.356;2023-04-10T11:41:18;94872.75;;;13.25;72.98
5913;BME280;2982;42.684;23.356;2023-04-10T11:43:44;94886.44;;;13.09;72.97
5913;BME280;2982;42.684;23.356;2023-04-10T11:46:09;94874.28;;;13.27;75.94
5913;BME280;2982;42.684;23.356;2023-04-10T11:48:35;94888.94;;;13.11;69.02
5913;BME280;2982;42.684;23.356;2023-04-10T11:51:08;94875.75;;;12.63;71.44
5913;BME280;2982;42.684;23.356;2023-04-10T11:53:33;94863.44;;;12.70;72.67
5913;BME280;2982;42.684;23.356;2023-04-10T11:55:59;94879.03;;;12.51;76.47
5913;BME280;2982;42.684;23.356;2023-04-10T11:58:25;94869.69;;;12.23;76.01
5913;BME280;2982;42.684;23.356;2023-04-10T12:01:02;94884.81;;;12.26;75.36
5913;BME280;2982;42.684;23.356;2023-04-10T12:05:57;94867.00;;;12.26;74.30
5913;BME280;2982;42.684;23.356;2023-04-10T12:08:49;94861.41;;;12.34;75.25
5913;BME280;2982;42.684;23.356;2023-04-10T12:11:17;94841.34;;;12.15;77.46
5913;BME280;2982;42.684;23.356;2023-04-10T12:13:43;94875.81;;;12.21;82.17
5913;BME280;2982;42.684;23.356;2023-04-10T12:16:09;94884.13;;;11.66;100.00
5913;BME280;2982;42.684;23.356;2023-04-10T12:18:35;94902.81;;;11.06;100.00
5913;BME280;2982;42.684;23.356;2023-04-10T12:21:02;94904.25;;;10.31;100.00
5913;BME280;2982;42.684;23.356;2023-04-10T12:23:28;94885.28;;;9.72;100.00
5913;BME280;2982;42.684;23.356;2023-04-10T12:26:14;94899.16;;;9.48;100.00
5913;BME280;2982;42.684;23.356;2023-04-10T12:28:41;94902.00;;;9.25;100.00
5913;BME280;2982;42.684;23.356;2023-04-10T12:31:13;94901.09;;;9.09;100.00
5913;BME280;2982;42.684;23.356;2023-04-10T12:33:38;94884.03;;;8.95;100.00
5913;BME280;2982;42.684;23.356;2023-04-10T12:36:04;94891.50;;;8.79;100.00
5913;BME280;2982;42.684;23.356;2023-04-10T12:41:03;94876.34;;;8.42;100.00
5913;BME280;2982;42.684;23.356;2023-04-10T12:43:30;94875.13;;;8.32;100.00
5913;BME280;2982;42.684;23.356;2023-04-10T12:45:55;94869.13;;;8.34;100.00
5913;BME280;2982;42.684;23.356;2023-04-10T12:48:24;94880.56;;;8.60;100.00
5913;BME280;2982;42.684;23.356;2023-04-10T12:50:49;94882.25;;;8.78;100.00
5913;BME280;2982;42.684;23.356;2023-04-10T12:53:14;94885.19;;;8.88;100.00
5913;BME280;2982;42.684;23.356;2023-04-10T12:55:40;94867.69;;;9.01;100.00
5913;BME280;2982;42.684;23.356;2023-04-10T12:58:15;94874.66;;;9.32;100.00
5913;BME280;2982;42.684;23.356;2023-04-10T13:00:41;94877.38;;;9.61;100.00
5913;BME280;2982;42.684;23.356;2023-04-10T13:03:06;94859.22;;;9.86;100.00
5913;BME280;2982;42.684;23.356;2023-04-10T13:05:32;94870.53;;;10.29;100.00
5913;BME280;2982;42.684;23.356;2023-04-10T13:07:57;94861.53;;;10.55;100.00
5913;BME280;2982;42.684;23.356;2023-04-10T13:10:22;94852.25;;;10.70;100.00
5913;BME280;2982;42.684;23.356;2023-04-10T13:12:47;94837.00;;;10.85;100.00
5913;BME280;2982;42.684;23.356;2023-04-10T13:15:13;94847.28;;;11.14;100.00
5913;BME280;2982;42.684;23.356;2023-04-10T13:17:38;94851.72;;;11.54;100.00
5913;BME280;2982;42.684;23.356;2023-04-10T13:20:04;94835.00;;;11.80;100.00
5913;BME280;2982;42.684;23.356;2023-04-10T13:22:29;94835.31;;;12.30;100.00
5913;BME280;2982;42.684;23.356;2023-04-10T13:24:54;94829.69;;;12.66;100.00
5913;BME280;2982;42.684;23.356;2023-04-10T13:27:20;94808.47;;;12.66;100.00
5913;BME280;2982;42.684;23.356;2023-04-10T13:29:45;94834.00;;;12.78;100.00
5913;BME280;2982;42.684;23.356;2023-04-10T13:32:10;94833.38;;;12.48;100.00
5913;BME280;2982;42.684;23.356;2023-04-10T13:34:35;94840.63;;;11.85;100.00